createdAt,value
2019-02-20T00:02:12.057Z,19.02
2019-02-20T00:04:40.897Z,15.85
2019-02-20T00:07:09.822Z,17.48
2019-02-20T00:09:41.458Z,15.93
2019-02-20T00:12:10.309Z,18.45
2019-02-20T00:14:39.192Z,17.90
2019-02-20T00:17:08.086Z,17.20
2019-02-20T00:19:36.978Z,16.10
2019-02-20T00:22:05.820Z,19.42
2019-02-20T00:24:34.664Z,24.80
2019-02-20T00:27:03.521Z,25.60
2019-02-20T00:29:32.363Z,18.85
2019-02-20T00:32:01.336Z,19.50
2019-02-20T00:34:31.249Z,18.65
2019-02-20T00:37:00.081Z,23.22
2019-02-20T00:39:28.945Z,23.30
2019-02-20T00:41:57.828Z,18.70
2019-02-20T00:44:45.740Z,19.05
2019-02-20T00:47:24.042Z,21.52
2019-02-20T00:49:53.200Z,22.73
2019-02-20T00:52:49.670Z,19.07
2019-02-20T00:55:12.064Z,21.52
2019-02-20T00:57:40.972Z,20.15
2019-02-20T01:00:11.277Z,22.75
2019-02-20T01:02:40.234Z,21.20
2019-02-20T01:05:09.222Z,18.85
2019-02-20T01:07:38.233Z,20.77
2019-02-20T01:10:07.704Z,19.07
2019-02-20T01:12:36.553Z,18.70
2019-02-20T01:15:05.725Z,17.92
2019-02-20T01:17:34.716Z,16.40
2019-02-20T01:20:03.948Z,17.77
2019-02-20T01:22:32.878Z,19.32
2019-02-20T01:25:01.788Z,20.17
2019-02-20T01:27:30.634Z,18.12
2019-02-20T01:29:59.553Z,20.32
2019-02-20T01:32:28.473Z,16.30
2019-02-20T01:34:57.301Z,20.77
2019-02-20T01:37:26.277Z,20.43
2019-02-20T01:39:55.138Z,18.35
2019-02-20T01:42:24.042Z,17.65
2019-02-20T01:44:52.981Z,21.15
2019-02-20T01:47:21.882Z,18.20
2019-02-20T01:49:50.836Z,21.15
2019-02-20T01:52:25.696Z,21.20
2019-02-20T01:54:54.979Z,19.82
2019-02-20T01:57:23.893Z,18.25
2019-02-20T01:59:52.805Z,17.30
2019-02-20T02:02:21.630Z,24.40
2019-02-20T02:04:50.638Z,20.48
2019-02-20T02:07:19.542Z,18.87
2019-02-20T02:09:48.538Z,21.25
2019-02-20T02:12:17.379Z,16.32
2019-02-20T02:14:46.195Z,21.42
2019-02-20T02:17:15.054Z,19.37
2019-02-20T02:19:43.897Z,20.08
2019-02-20T02:22:12.933Z,19.10
2019-02-20T02:24:41.844Z,18.15
2019-02-20T02:27:10.826Z,20.72
2019-02-20T02:29:39.752Z,17.20
2019-02-20T02:32:08.727Z,19.65
2019-02-20T02:34:37.705Z,20.50
2019-02-20T02:37:06.581Z,20.05
2019-02-20T02:39:35.471Z,21.00
2019-02-20T02:42:04.387Z,17.05
2019-02-20T02:44:33.272Z,18.77
2019-02-20T02:47:02.216Z,16.77
2019-02-20T02:49:31.153Z,20.12
2019-02-20T02:52:00.051Z,20.25
2019-02-20T02:54:28.909Z,21.85
2019-02-20T02:56:57.749Z,15.78
2019-02-20T02:59:26.829Z,20.92
2019-02-20T03:01:55.675Z,18.37
2019-02-20T03:04:24.489Z,17.37
2019-02-20T03:06:53.328Z,18.87
2019-02-20T03:09:23.164Z,15.48
2019-02-20T03:11:52.025Z,15.00
2019-02-20T03:14:20.924Z,18.57
2019-02-20T03:16:49.825Z,16.45
2019-02-20T03:19:18.689Z,19.65
2019-02-20T03:21:47.750Z,16.67
2019-02-20T03:24:16.620Z,17.12
2019-02-20T03:26:45.464Z,15.68
2019-02-20T03:29:14.393Z,19.65
2019-02-20T03:31:43.382Z,17.40
2019-02-20T03:34:14.206Z,18.17
2019-02-20T03:36:43.115Z,18.80
2019-02-20T03:39:12.730Z,19.45
2019-02-20T03:41:41.645Z,13.85
2019-02-20T03:44:16.308Z,17.05
2019-02-20T03:46:45.238Z,18.70
2019-02-20T03:49:14.379Z,19.48
2019-02-20T03:51:43.269Z,22.73
2019-02-20T03:54:12.195Z,19.65
2019-02-20T03:56:41.259Z,21.10
2019-02-20T03:59:10.374Z,23.92
2019-02-20T04:01:39.270Z,22.98
2019-02-20T04:04:08.262Z,29.48
2019-02-20T04:06:37.052Z,24.55
2019-02-20T04:09:06.890Z,25.70
2019-02-20T04:11:35.776Z,23.90
2019-02-20T04:14:04.719Z,29.52
2019-02-20T04:16:33.664Z,28.87
2019-02-20T04:19:02.469Z,21.65
2019-02-20T04:21:31.356Z,25.65
2019-02-20T04:24:02.733Z,25.23
2019-02-20T04:26:30.962Z,18.90
2019-02-20T04:28:59.838Z,20.43
2019-02-20T04:31:28.673Z,20.90
2019-02-20T04:33:57.501Z,18.27
2019-02-20T04:36:26.333Z,18.50
2019-02-20T04:38:55.190Z,19.48
2019-02-20T04:41:24.090Z,20.32
2019-02-20T04:43:52.974Z,19.82
2019-02-20T04:46:21.788Z,21.65
2019-02-20T04:48:50.741Z,19.07
2019-02-20T04:51:19.614Z,16.82
2019-02-20T04:53:48.484Z,20.88
2019-02-20T04:56:17.761Z,19.45
2019-02-20T04:58:48.487Z,25.80
2019-02-20T05:01:17.633Z,32.28
2019-02-20T05:03:46.460Z,23.50
2019-02-20T05:06:15.646Z,29.07
2019-02-20T05:08:44.457Z,20.37
2019-02-20T05:11:13.258Z,26.90
2019-02-20T05:13:42.138Z,22.52
2019-02-20T05:16:11.078Z,25.02
2019-02-20T05:18:39.956Z,21.15
2019-02-20T05:21:10.082Z,19.48
2019-02-20T05:23:38.926Z,22.58
2019-02-20T05:26:07.817Z,22.85
2019-02-20T05:28:36.673Z,21.82
2019-02-20T05:31:05.493Z,22.58
2019-02-20T05:33:34.373Z,21.77
2019-02-20T05:36:03.268Z,25.32
2019-02-20T05:38:32.077Z,26.20
2019-02-20T05:41:01.388Z,20.52
2019-02-20T05:43:30.245Z,28.75
2019-02-20T05:45:59.130Z,23.90
2019-02-20T05:48:28.005Z,26.68
2019-02-20T05:51:01.163Z,24.55
2019-02-20T05:53:32.045Z,28.35
2019-02-20T05:56:00.975Z,31.82
2019-02-20T05:58:32.892Z,26.87
2019-02-20T06:01:01.729Z,32.73
2019-02-20T06:03:30.649Z,28.83
2019-02-20T06:05:59.585Z,29.48
2019-02-20T06:08:28.567Z,25.68
2019-02-20T06:10:57.585Z,28.70
2019-02-20T06:13:26.477Z,26.60
2019-02-20T06:15:55.313Z,30.82
2019-02-20T06:18:25.626Z,29.20
2019-02-20T06:20:54.490Z,28.15
2019-02-20T06:23:23.387Z,28.45
2019-02-20T06:25:52.220Z,26.85
2019-02-20T06:28:21.060Z,29.35
2019-02-20T06:30:49.893Z,28.62
2019-02-20T06:33:18.758Z,24.30
2019-02-20T06:35:47.636Z,28.40
2019-02-20T06:38:16.616Z,30.80
2019-02-20T06:40:45.467Z,28.10
2019-02-20T06:43:14.346Z,27.52
2019-02-20T06:45:43.250Z,25.27
2019-02-20T06:48:12.241Z,20.92
2019-02-20T06:50:41.094Z,32.42
2019-02-20T06:53:09.932Z,20.27
2019-02-20T06:55:38.773Z,25.97
2019-02-20T06:58:07.719Z,22.27
2019-02-20T07:00:36.685Z,23.87
2019-02-20T07:03:05.540Z,23.45
2019-02-20T07:05:39.754Z,22.40
2019-02-20T07:08:17.432Z,24.90
2019-02-20T07:11:33.425Z,23.12
2019-02-20T07:14:23.501Z,21.00
2019-02-20T07:17:19.409Z,22.95
2019-02-20T07:20:28.338Z,25.30
2019-02-20T07:23:43.908Z,17.55
2019-02-20T07:26:48.655Z,19.65
2019-02-20T07:29:58.298Z,22.95
2019-02-20T07:32:27.293Z,21.48
2019-02-20T07:34:56.238Z,19.57
2019-02-20T07:37:25.162Z,18.80
2019-02-20T07:39:54.060Z,20.23
2019-02-20T07:42:23.033Z,20.90
2019-02-20T07:44:52.018Z,22.10
2019-02-20T07:47:23.538Z,26.68
2019-02-20T07:49:52.427Z,24.60
2019-02-20T07:52:21.502Z,24.45
2019-02-20T07:54:50.531Z,23.35
2019-02-20T07:57:20.524Z,27.00
2019-02-20T07:59:52.949Z,28.83
2019-02-20T08:02:21.926Z,29.55
2019-02-20T08:04:50.973Z,32.10
2019-02-20T08:07:19.992Z,28.38
2019-02-20T08:09:49.093Z,26.42
2019-02-20T08:12:18.193Z,33.18
2019-02-20T08:14:53.157Z,32.70
2019-02-20T08:17:22.139Z,31.00
2019-02-20T08:19:55.205Z,33.55
2019-02-20T08:22:30.263Z,32.63
2019-02-20T08:25:00.464Z,31.93
2019-02-20T08:27:30.315Z,34.25
2019-02-20T08:29:59.319Z,32.95
2019-02-20T08:32:34.150Z,27.60
2019-02-20T08:35:03.270Z,29.12
2019-02-20T08:37:33.245Z,29.40
2019-02-20T08:40:04.852Z,30.90
2019-02-20T08:42:33.867Z,25.37
2019-02-20T08:45:02.947Z,26.07
2019-02-20T08:47:31.916Z,27.55
2019-02-20T08:50:00.969Z,26.73
2019-02-20T08:52:29.906Z,25.20
2019-02-20T08:55:08.407Z,30.10
2019-02-20T08:57:37.446Z,27.07
2019-02-20T09:00:10.870Z,32.78
2019-02-20T09:02:45.719Z,31.50
2019-02-20T09:05:18.869Z,32.63
2019-02-20T09:07:47.836Z,38.20
2019-02-20T09:10:17.478Z,34.27
2019-02-20T09:12:47.668Z,36.17
2019-02-20T09:15:16.678Z,36.30
2019-02-20T09:17:45.539Z,26.55
2019-02-20T09:20:14.617Z,32.75
2019-02-20T09:22:43.477Z,27.60
2019-02-20T09:25:19.977Z,28.32
2019-02-20T09:27:48.427Z,29.98
2019-02-20T09:30:18.157Z,33.73
2019-02-20T09:32:47.026Z,30.70
2019-02-20T09:35:15.990Z,23.57
2019-02-20T09:37:44.956Z,19.73
2019-02-20T09:40:14.969Z,27.82
2019-02-20T09:42:45.544Z,22.87
2019-02-20T09:45:15.462Z,21.25
2019-02-20T09:47:44.370Z,21.42
2019-02-20T09:50:13.414Z,19.37
2019-02-20T09:52:51.672Z,17.15
2019-02-20T09:55:19.228Z,17.77
2019-02-20T09:57:48.072Z,21.87
2019-02-20T10:00:18.189Z,17.50
2019-02-20T10:02:52.969Z,15.93
2019-02-20T10:05:21.889Z,17.10
2019-02-20T10:07:53.936Z,17.73
2019-02-20T10:10:22.895Z,16.75
2019-02-20T10:12:51.858Z,20.17
2019-02-20T10:15:20.825Z,20.08
2019-02-20T10:17:49.814Z,19.62
2019-02-20T10:20:21.734Z,18.48
2019-02-20T10:22:50.663Z,19.60
2019-02-20T10:25:19.673Z,16.67
2019-02-20T10:27:50.855Z,15.98
2019-02-20T10:30:21.893Z,16.40
2019-02-20T10:32:56.994Z,16.48
2019-02-20T10:35:26.966Z,16.32
2019-02-20T10:37:55.877Z,15.55
2019-02-20T10:40:25.864Z,16.97
2019-02-20T10:43:03.974Z,12.23
2019-02-20T10:45:35.101Z,13.95
2019-02-20T10:48:11.809Z,22.13
2019-02-20T10:50:43.883Z,13.03
2019-02-20T10:53:18.723Z,16.95
2019-02-20T10:55:51.969Z,16.32
2019-02-20T10:58:26.188Z,12.47
2019-02-20T11:00:57.207Z,16.32
2019-02-20T11:03:29.670Z,14.58
2019-02-20T11:06:00.665Z,14.87
2019-02-20T11:08:30.591Z,13.38
2019-02-20T11:11:03.694Z,14.65
2019-02-20T11:13:41.471Z,13.40
2019-02-20T11:16:10.504Z,18.25
2019-02-20T11:18:39.458Z,14.33
2019-02-20T11:21:15.266Z,15.20
2019-02-20T11:23:44.235Z,12.43
2019-02-20T11:26:18.365Z,15.23
2019-02-20T11:28:50.252Z,13.90
2019-02-20T11:31:27.298Z,14.70
2019-02-20T11:33:56.295Z,15.63
2019-02-20T11:36:31.442Z,14.67
2019-02-20T11:39:00.498Z,17.43
2019-02-20T11:41:31.441Z,15.53
2019-02-20T11:44:00.414Z,15.87
2019-02-20T11:46:36.262Z,13.53
2019-02-20T11:49:05.374Z,13.90
2019-02-20T11:51:39.422Z,14.70
2019-02-20T11:54:08.540Z,16.80
2019-02-20T11:56:37.502Z,13.72
2019-02-20T11:59:06.618Z,12.80
2019-02-20T12:01:35.596Z,16.80
2019-02-20T12:04:04.584Z,13.53
2019-02-20T12:06:34.606Z,18.67
2019-02-20T12:09:05.647Z,12.73
2019-02-20T12:11:34.834Z,14.13
2019-02-20T12:14:04.887Z,12.87
2019-02-20T12:16:33.810Z,13.80
2019-02-20T12:19:15.809Z,15.63
2019-02-20T12:21:51.179Z,15.63
2019-02-20T12:24:21.236Z,16.27
2019-02-20T12:26:59.369Z,16.47
2019-02-20T12:29:30.986Z,18.00
2019-02-20T12:32:00.083Z,18.03
2019-02-20T12:34:35.372Z,17.63
2019-02-20T12:37:04.453Z,17.10
2019-02-20T12:39:34.421Z,15.93
2019-02-20T12:42:03.601Z,20.90
2019-02-20T12:44:32.684Z,19.20
2019-02-20T12:47:10.549Z,19.90
2019-02-20T12:49:39.552Z,17.53
2019-02-20T12:52:11.690Z,16.60
2019-02-20T12:54:43.870Z,18.57
2019-02-20T12:57:12.866Z,20.20
2019-02-20T12:59:48.257Z,21.20
2019-02-20T13:02:23.208Z,17.23
2019-02-20T13:04:52.694Z,21.53
2019-02-20T13:07:24.761Z,17.93
2019-02-20T13:09:58.867Z,25.30
2019-02-20T13:12:31.187Z,20.20
2019-02-20T13:15:00.314Z,21.07
2019-02-20T13:17:29.340Z,23.27
2019-02-20T13:20:10.925Z,24.67
2019-02-20T13:22:49.888Z,22.77
2019-02-20T13:25:20.933Z,23.05
2019-02-20T13:27:49.692Z,18.00
2019-02-20T13:30:19.825Z,20.10
2019-02-20T13:32:50.894Z,21.30
2019-02-20T13:35:19.557Z,19.15
2019-02-20T13:37:51.893Z,19.15
2019-02-20T13:40:21.881Z,27.23
2019-02-20T13:42:53.153Z,19.23
2019-02-20T13:45:23.108Z,20.37
2019-02-20T13:47:52.226Z,19.35
2019-02-20T13:50:29.386Z,19.20
2019-02-20T13:53:04.213Z,19.20
2019-02-20T13:55:34.841Z,20.10
2019-02-20T13:58:11.619Z,23.03
2019-02-20T14:00:40.656Z,20.53
2019-02-20T14:03:10.696Z,18.20
2019-02-20T14:05:39.638Z,18.30
2019-02-20T14:08:08.622Z,22.17
2019-02-20T14:10:38.722Z,20.20
2019-02-20T14:13:08.634Z,18.80
2019-02-20T14:15:43.491Z,16.80
2019-02-20T14:18:12.427Z,22.13
2019-02-20T14:20:41.566Z,27.40
2019-02-20T14:23:10.474Z,21.23
2019-02-20T14:25:39.411Z,26.37
2019-02-20T14:28:08.590Z,26.10
2019-02-20T14:30:37.481Z,18.93
2019-02-20T14:33:06.417Z,20.43
2019-02-20T14:35:35.263Z,21.93
2019-02-20T14:38:04.173Z,19.60
2019-02-20T14:40:33.046Z,21.33
2019-02-20T14:43:02.107Z,24.93
2019-02-20T14:45:31.096Z,21.83
2019-02-20T14:48:00.348Z,25.23
2019-02-20T14:50:29.197Z,23.20
2019-02-20T14:52:58.128Z,18.63
2019-02-20T14:55:27.100Z,22.30
2019-02-20T14:57:55.978Z,26.50
2019-02-20T15:00:25.049Z,25.37
2019-02-20T15:02:53.988Z,22.57
2019-02-20T15:05:23.050Z,19.10
2019-02-20T15:07:52.031Z,21.40
2019-02-20T15:10:20.968Z,20.73
2019-02-20T15:12:49.890Z,19.07
2019-02-20T15:15:19.212Z,23.33
2019-02-20T15:17:50.434Z,19.20
2019-02-20T15:20:29.379Z,20.63
2019-02-20T15:23:08.301Z,18.47
2019-02-20T15:25:43.136Z,22.73
2019-02-20T15:28:14.068Z,25.03
2019-02-20T15:30:43.163Z,21.40
2019-02-20T15:33:12.205Z,20.75
2019-02-20T15:35:41.181Z,21.77
2019-02-20T15:38:16.177Z,26.37
2019-02-20T15:40:45.181Z,26.65
2019-02-20T15:43:14.190Z,27.50
2019-02-20T15:45:43.108Z,27.10
2019-02-20T15:48:12.171Z,25.13
2019-02-20T15:50:41.021Z,22.03
2019-02-20T15:53:09.977Z,21.87
2019-02-20T15:55:38.908Z,23.03
2019-02-20T15:58:13.772Z,20.40
2019-02-20T16:00:42.697Z,23.60
2019-02-20T16:03:12.978Z,22.63
2019-02-20T16:05:47.919Z,17.10
2019-02-20T16:08:28.889Z,20.30
2019-02-20T16:11:03.647Z,24.15
2019-02-20T16:13:34.575Z,19.15
2019-02-20T16:16:04.574Z,30.55
2019-02-20T16:18:47.878Z,23.05
2019-02-20T16:21:16.897Z,20.02
2019-02-20T16:23:45.799Z,20.62
2019-02-20T16:26:15.824Z,26.85
2019-02-20T16:28:50.782Z,20.30
2019-02-20T16:31:20.656Z,23.15
2019-02-20T16:33:51.929Z,25.08
2019-02-20T16:36:21.359Z,20.57
2019-02-20T16:38:50.562Z,22.40
2019-02-20T16:41:28.762Z,25.52
2019-02-20T16:43:57.691Z,22.27
2019-02-20T16:46:36.153Z,24.60
2019-02-20T16:49:08.350Z,25.85
2019-02-20T16:51:44.199Z,24.63
2019-02-20T16:54:13.297Z,21.95
2019-02-20T16:56:48.411Z,26.27
2019-02-20T16:59:17.578Z,23.07
2019-02-20T17:01:48.760Z,21.75
2019-02-20T17:04:17.776Z,24.52
2019-02-20T17:06:46.845Z,24.80
2019-02-20T17:09:15.953Z,18.60
2019-02-20T17:11:45.068Z,26.73
2019-02-20T17:14:22.890Z,23.30
2019-02-20T17:16:51.866Z,23.15
2019-02-20T17:19:22.890Z,28.75
2019-02-20T17:21:52.058Z,23.10
2019-02-20T17:24:29.884Z,25.12
2019-02-20T17:27:20.701Z,23.30
2019-02-20T17:29:49.581Z,24.07
2019-02-20T17:32:20.706Z,21.45
2019-02-20T17:34:51.306Z,27.25
2019-02-20T17:37:20.296Z,21.12
2019-02-20T17:39:58.293Z,22.32
2019-02-20T17:42:27.193Z,28.32
2019-02-20T17:44:56.190Z,19.27
2019-02-20T17:47:25.203Z,23.32
2019-02-20T17:49:54.238Z,26.95
2019-02-20T17:52:23.480Z,24.80
2019-02-20T17:54:52.536Z,22.05
2019-02-20T17:57:21.554Z,23.07
2019-02-20T17:59:52.025Z,21.77
2019-02-20T18:02:20.956Z,26.90
2019-02-20T18:04:49.894Z,36.05
2019-02-20T18:07:18.844Z,24.02
2019-02-20T18:09:47.734Z,28.92
2019-02-20T18:12:18.898Z,28.80
2019-02-20T18:14:47.794Z,24.77
2019-02-20T18:17:16.781Z,24.77
2019-02-20T18:19:45.687Z,23.35
2019-02-20T18:22:14.522Z,25.45
2019-02-20T18:24:43.436Z,28.20
2019-02-20T18:27:12.458Z,23.90
2019-02-20T18:29:42.946Z,25.08
2019-02-20T18:32:11.988Z,26.40
2019-02-20T18:34:41.078Z,29.25
2019-02-20T18:37:12.750Z,26.65
2019-02-20T18:39:41.706Z,31.23
2019-02-20T18:42:10.666Z,26.68
2019-02-20T18:44:45.313Z,31.17
2019-02-20T18:47:14.289Z,30.90
2019-02-20T18:49:43.149Z,30.90
2019-02-20T18:52:12.231Z,29.92
2019-02-20T18:54:42.397Z,26.60
2019-02-20T18:57:11.477Z,31.80
2019-02-20T18:59:42.582Z,28.87
2019-02-20T19:02:11.605Z,29.60
2019-02-20T19:04:40.541Z,27.73
2019-02-20T19:07:14.491Z,26.52
2019-02-20T19:09:46.605Z,28.27
2019-02-20T19:12:55.633Z,30.97
2019-02-20T19:16:16.267Z,26.95
2019-02-20T19:19:30.513Z,32.88
2019-02-20T19:22:26.750Z,26.55
2019-02-20T19:25:17.246Z,26.68
2019-02-20T19:28:30.546Z,26.15
2019-02-20T19:31:38.553Z,26.37
2019-02-20T19:34:28.796Z,25.08
2019-02-20T19:37:16.213Z,25.70
2019-02-20T19:40:10.140Z,24.40
2019-02-20T19:42:52.208Z,31.97
2019-02-20T19:46:11.460Z,25.02
2019-02-20T19:48:53.380Z,27.20
2019-02-20T19:51:49.844Z,27.30
2019-02-20T19:54:36.679Z,25.02
2019-02-20T19:57:34.020Z,23.25
2019-02-20T20:00:48.140Z,25.37
2019-02-20T20:03:45.994Z,23.05
2019-02-20T20:06:40.601Z,36.23
2019-02-20T20:10:02.516Z,28.23
2019-02-20T20:12:54.598Z,30.85
2019-02-20T20:16:03.508Z,23.80
2019-02-20T20:19:13.805Z,22.40
2019-02-20T20:21:54.673Z,26.30
2019-02-20T20:25:10.974Z,27.70
2019-02-20T20:28:21.400Z,31.10
2019-02-20T20:31:30.965Z,22.87
2019-02-20T20:34:49.730Z,26.12
2019-02-20T20:37:41.127Z,25.88
2019-02-20T20:40:37.124Z,22.60
2019-02-20T20:43:53.273Z,23.25
2019-02-20T20:46:50.361Z,32.42
2019-02-20T20:49:55.702Z,23.15
2019-02-20T20:53:12.052Z,27.70
2019-02-20T20:56:21.022Z,24.67
2019-02-20T20:59:36.463Z,23.00
2019-02-20T21:02:26.896Z,31.48
2019-02-20T21:05:32.149Z,22.02
2019-02-20T21:08:55.181Z,26.10
2019-02-20T21:12:07.366Z,33.42
2019-02-20T21:15:13.947Z,26.85
2019-02-20T21:18:20.922Z,30.10
2019-02-20T21:21:14.418Z,32.83
2019-02-20T21:24:16.527Z,50.43
2019-02-20T21:27:28.371Z,46.77
2019-02-20T21:30:40.452Z,48.92
2019-02-20T21:33:48.407Z,42.23
2019-02-20T21:36:48.030Z,38.92
2019-02-20T21:39:57.094Z,37.90
2019-02-20T21:42:53.726Z,39.80
2019-02-20T21:45:37.490Z,33.33
2019-02-20T21:48:39.093Z,40.33
2019-02-20T21:51:34.279Z,42.58
2019-02-20T21:54:33.517Z,37.50
2019-02-20T21:57:45.173Z,40.40
2019-02-20T22:00:52.370Z,37.67
2019-02-20T22:03:58.490Z,38.20
2019-02-20T22:07:09.009Z,42.90
2019-02-20T22:09:57.809Z,46.05
2019-02-20T22:13:22.702Z,36.20
2019-02-20T22:16:16.326Z,40.67
2019-02-20T22:19:22.540Z,38.08
2019-02-20T22:22:49.590Z,42.00
2019-02-20T22:25:45.070Z,35.85
2019-02-20T22:28:57.055Z,42.17
2019-02-20T22:31:53.798Z,38.95
2019-02-20T22:34:54.456Z,41.58
2019-02-20T22:38:03.571Z,40.38
2019-02-20T22:41:08.305Z,42.88
2019-02-20T22:44:14.779Z,43.33
2019-02-20T22:47:21.689Z,47.83
2019-02-20T22:51:05.759Z,48.33
2019-02-20T22:54:01.856Z,45.20
2019-02-20T22:57:07.854Z,44.10
2019-02-20T23:00:04.163Z,43.38
2019-02-20T23:03:17.413Z,39.30
2019-02-20T23:06:17.659Z,38.88
2019-02-20T23:09:08.252Z,43.42
2019-02-20T23:12:18.637Z,48.58
2019-02-20T23:14:58.293Z,52.85
2019-02-20T23:17:36.343Z,45.98
2019-02-20T23:20:14.542Z,42.25
2019-02-20T23:22:43.672Z,38.28
2019-02-20T23:25:18.522Z,46.37
2019-02-20T23:27:57.976Z,41.85
2019-02-20T23:30:27.977Z,47.17
2019-02-20T23:33:00.727Z,41.63
2019-02-20T23:35:29.831Z,50.55
2019-02-20T23:38:01.252Z,48.70
2019-02-20T23:40:30.194Z,43.15
2019-02-20T23:43:01.605Z,42.10
2019-02-20T23:45:30.529Z,44.03
2019-02-20T23:47:59.425Z,39.88
2019-02-20T23:50:29.329Z,40.15
2019-02-20T23:52:58.198Z,44.08
2019-02-20T23:55:27.160Z,54.27
2019-02-20T23:57:56.089Z,45.00
